createdAt,value
2019-06-01T00:00:46.248Z,73.29
2019-06-01T00:03:13.853Z,73.38
2019-06-01T00:05:42.763Z,73.46
2019-06-01T00:08:11.663Z,73.55
2019-06-01T00:10:41.058Z,73.53
2019-06-01T00:13:09.481Z,73.69
2019-06-01T00:15:38.427Z,73.57
2019-06-01T00:18:07.408Z,73.53
2019-06-01T00:20:36.340Z,73.52
2019-06-01T00:23:05.246Z,73.51
2019-06-01T00:25:34.175Z,73.71
2019-06-01T00:28:03.060Z,72.09
2019-06-01T00:30:31.989Z,73.24
2019-06-01T00:33:00.899Z,73.34
2019-06-01T00:35:29.798Z,73.20
2019-06-01T00:37:58.717Z,73.23
2019-06-01T00:40:27.620Z,73.06
2019-06-01T00:42:56.537Z,72.84
2019-06-01T00:45:25.417Z,72.65
2019-06-01T00:47:54.338Z,73.02
2019-06-01T00:50:23.216Z,72.95
2019-06-01T00:52:53.199Z,72.75
2019-06-01T00:55:21.032Z,73.00
2019-06-01T00:57:49.930Z,72.86
2019-06-01T01:00:18.830Z,72.41
2019-06-01T01:02:48.031Z,72.65
2019-06-01T01:05:17.366Z,72.60
2019-06-01T01:07:46.645Z,72.75
2019-06-01T01:10:15.168Z,73.05
2019-06-01T01:13:01.799Z,73.22
2019-06-01T01:15:30.699Z,73.29
2019-06-01T01:17:59.632Z,73.06
2019-06-01T01:20:28.515Z,72.94
2019-06-01T01:22:57.441Z,72.94
2019-06-01T01:25:26.355Z,72.84
2019-06-01T01:27:55.221Z,72.86
2019-06-01T01:30:24.118Z,72.86
2019-06-01T01:32:53.570Z,72.97
2019-06-01T01:35:21.912Z,73.19
2019-06-01T01:37:51.961Z,73.13
2019-06-01T01:40:19.709Z,73.09
2019-06-01T01:42:48.858Z,72.19
2019-06-01T01:45:17.531Z,73.43
2019-06-01T01:47:46.440Z,73.48
2019-06-01T01:50:15.344Z,73.40
2019-06-01T01:52:44.247Z,73.81
2019-06-01T01:55:13.178Z,73.85
2019-06-01T01:57:42.085Z,73.95
2019-06-01T02:00:11.000Z,73.92
2019-06-01T02:02:39.931Z,74.00
2019-06-01T02:05:08.938Z,74.08
2019-06-01T02:07:37.864Z,74.06
2019-06-01T02:10:06.852Z,73.93
2019-06-01T02:12:35.785Z,73.67
2019-06-01T02:15:05.290Z,73.45
2019-06-01T02:17:34.212Z,73.30
2019-06-01T02:20:03.142Z,73.33
2019-06-01T02:22:32.040Z,73.20
2019-06-01T02:25:02.082Z,73.20
2019-06-01T02:27:29.862Z,73.37
2019-06-01T02:29:59.350Z,73.31
2019-06-01T02:32:27.708Z,73.62
2019-06-01T02:34:58.426Z,73.38
2019-06-01T02:37:25.498Z,73.09
2019-06-01T02:39:54.486Z,73.23
2019-06-01T02:42:23.285Z,73.02
2019-06-01T02:44:52.170Z,72.88
2019-06-01T02:47:21.081Z,73.43
2019-06-01T02:49:49.997Z,73.77
2019-06-01T02:52:18.932Z,74.27
2019-06-01T02:54:47.814Z,73.56
2019-06-01T02:57:16.695Z,74.58
2019-06-01T02:59:45.617Z,74.61
2019-06-01T03:02:15.131Z,74.65
2019-06-01T03:04:43.485Z,74.56
2019-06-01T03:07:12.390Z,74.33
2019-06-01T03:09:41.297Z,74.46
2019-06-01T03:12:10.732Z,74.20
2019-06-01T03:14:39.935Z,74.02
2019-06-01T03:17:09.846Z,73.26
2019-06-01T03:19:38.628Z,72.71
2019-06-01T03:22:08.624Z,72.10
2019-06-01T03:24:36.791Z,73.65
2019-06-01T03:27:06.347Z,73.67
2019-06-01T03:29:34.797Z,73.74
2019-06-01T03:32:23.979Z,73.85
2019-06-01T03:34:32.658Z,73.74
2019-06-01T03:37:02.789Z,73.75
2019-06-01T03:39:30.566Z,73.81
2019-06-01T03:41:59.478Z,74.05
2019-06-01T03:44:28.379Z,74.16
2019-06-01T03:46:57.298Z,74.07
2019-06-01T03:49:26.219Z,74.04
2019-06-01T03:51:55.099Z,74.03
2019-06-01T03:54:24.013Z,74.08
2019-06-01T03:56:52.901Z,74.07
2019-06-01T03:59:21.807Z,74.44
2019-06-01T04:01:50.733Z,74.51
2019-06-01T04:04:19.636Z,73.65
2019-06-01T04:06:48.581Z,74.75
2019-06-01T04:09:17.483Z,74.67
2019-06-01T04:11:46.404Z,73.74
2019-06-01T04:14:15.300Z,72.79
2019-06-01T04:16:44.237Z,73.70
2019-06-01T04:19:13.155Z,73.52
2019-06-01T04:21:42.089Z,73.97
2019-06-01T04:24:12.198Z,74.55
2019-06-01T04:26:39.901Z,75.19
2019-06-01T04:29:10.271Z,75.50
2019-06-01T04:31:37.876Z,75.64
2019-06-01T04:34:06.882Z,76.15
2019-06-01T04:36:35.803Z,76.66
2019-06-01T04:39:07.337Z,76.35
2019-06-01T04:41:35.375Z,76.40
2019-06-01T04:44:04.396Z,76.37
2019-06-01T04:46:33.291Z,76.32
2019-06-01T04:49:02.202Z,76.32
2019-06-01T04:51:31.118Z,76.33
2019-06-01T04:54:00.009Z,76.69
2019-06-01T04:56:28.918Z,76.70
2019-06-01T04:58:57.801Z,76.88
2019-06-01T05:01:26.707Z,77.26
2019-06-01T05:03:55.609Z,78.90
2019-06-01T05:06:24.488Z,79.74
2019-06-01T05:08:53.409Z,79.44
2019-06-01T05:11:22.290Z,78.70
2019-06-01T05:13:51.182Z,78.53
2019-06-01T05:16:20.094Z,78.92
2019-06-01T05:18:49.000Z,78.37
2019-06-01T05:21:17.907Z,77.99
2019-06-01T05:23:46.824Z,78.02
2019-06-01T05:26:17.038Z,77.64
2019-06-01T05:28:44.668Z,77.55
2019-06-01T05:31:21.953Z,77.20
2019-06-01T05:33:42.519Z,76.96
2019-06-01T05:36:12.004Z,76.48
2019-06-01T05:38:40.308Z,76.19
2019-06-01T05:41:10.348Z,74.62
2019-06-01T05:43:38.197Z,75.02
2019-06-01T05:46:07.226Z,74.75
2019-06-01T05:48:36.129Z,74.10
2019-06-01T05:51:05.279Z,73.46
2019-06-01T05:53:34.219Z,72.62
2019-06-01T05:56:03.125Z,72.20
2019-06-01T05:58:32.031Z,71.35
2019-06-01T06:01:00.921Z,70.76
2019-06-01T06:03:39.870Z,69.57
2019-06-01T06:05:58.747Z,69.32
2019-06-01T06:08:27.657Z,69.58
2019-06-01T06:10:56.563Z,68.66
2019-06-01T06:13:25.443Z,67.56
2019-06-01T06:15:54.342Z,65.90
2019-06-01T06:18:23.230Z,64.52
2019-06-01T06:20:52.138Z,62.86
2019-06-01T06:23:21.034Z,60.47
2019-06-01T06:25:49.956Z,56.43
2019-06-01T06:28:18.887Z,53.01
2019-06-01T06:30:47.757Z,49.85
2019-06-01T06:33:17.375Z,47.39
2019-06-01T06:35:45.556Z,45.25
2019-06-01T06:38:15.596Z,43.64
2019-06-01T06:40:43.342Z,42.73
2019-06-01T06:43:21.775Z,41.51
2019-06-01T06:45:41.177Z,40.40
2019-06-01T06:48:10.122Z,39.69
2019-06-01T06:50:39.010Z,38.88
2019-06-01T06:53:08.020Z,37.34
2019-06-01T06:55:36.867Z,36.74
2019-06-01T06:58:05.867Z,36.66
2019-06-01T07:00:34.804Z,37.57
2019-06-01T07:03:03.803Z,37.28
2019-06-01T07:05:32.723Z,36.25
2019-06-01T07:08:01.591Z,35.69
2019-06-01T07:10:30.505Z,35.37
2019-06-01T07:12:59.400Z,35.12
2019-06-01T07:15:28.294Z,34.68
2019-06-01T07:17:57.199Z,34.41
2019-06-01T07:20:26.114Z,34.88
2019-06-01T07:22:55.021Z,33.92
2019-06-01T07:25:24.745Z,33.19
2019-06-01T07:27:52.817Z,32.41
2019-06-01T07:30:22.227Z,31.27
2019-06-01T07:32:50.655Z,30.69
2019-06-01T07:35:20.497Z,30.02
2019-06-01T07:37:48.441Z,29.14
2019-06-01T07:40:17.348Z,28.17
2019-06-01T07:42:46.226Z,30.05
2019-06-01T07:45:15.110Z,30.12
2019-06-01T07:47:44.034Z,30.74
2019-06-01T07:50:12.937Z,29.63
2019-06-01T07:52:41.843Z,29.21
2019-06-01T07:55:10.797Z,28.47
2019-06-01T07:57:43.038Z,29.17
2019-06-01T08:00:08.735Z,29.03
2019-06-01T08:02:37.636Z,28.11
2019-06-01T08:05:06.656Z,28.14
2019-06-01T08:07:35.498Z,27.77
2019-06-01T08:10:04.682Z,28.04
2019-06-01T08:12:33.579Z,26.21
2019-06-01T08:15:02.524Z,28.40
2019-06-01T08:17:32.241Z,27.78
2019-06-01T08:20:00.318Z,27.35
2019-06-01T08:22:30.073Z,25.74
2019-06-01T08:24:58.127Z,27.74
2019-06-01T08:27:27.029Z,27.98
2019-06-01T08:29:55.920Z,28.83
2019-06-01T08:32:24.832Z,29.73
2019-06-01T08:35:07.321Z,27.56
2019-06-01T08:37:23.469Z,26.09
2019-06-01T08:39:51.535Z,28.23
2019-06-01T08:42:20.445Z,27.88
2019-06-01T08:44:49.336Z,29.47
2019-06-01T08:47:18.248Z,28.47
2019-06-01T08:49:47.131Z,28.18
2019-06-01T08:52:16.036Z,30.03
2019-06-01T08:54:44.934Z,27.02
2019-06-01T08:57:13.848Z,28.71
2019-06-01T08:59:42.727Z,29.13
2019-06-01T09:02:11.622Z,31.24
2019-06-01T09:04:40.526Z,27.47
2019-06-01T09:07:09.436Z,26.34
2019-06-01T09:09:38.317Z,26.49
2019-06-01T09:12:07.363Z,26.13
2019-06-01T09:14:36.245Z,26.17
2019-06-01T09:17:05.336Z,25.56
2019-06-01T09:19:35.591Z,25.28
2019-06-01T09:22:03.249Z,25.68
2019-06-01T09:24:32.138Z,24.52
2019-06-01T09:27:01.050Z,24.65
2019-06-01T09:29:30.140Z,24.49
2019-06-01T09:31:58.847Z,24.29
2019-06-01T09:34:28.414Z,24.33
2019-06-01T09:36:56.628Z,24.94
2019-06-01T09:39:26.634Z,26.89
2019-06-01T09:41:54.415Z,27.68
2019-06-01T09:44:23.313Z,26.86
2019-06-01T09:46:52.194Z,25.29
2019-06-01T09:49:21.099Z,26.69
2019-06-01T09:51:49.979Z,25.29
2019-06-01T09:54:18.882Z,26.44
2019-06-01T09:56:47.756Z,25.02
2019-06-01T09:59:16.654Z,24.30
2019-06-01T10:01:45.609Z,26.70
2019-06-01T10:04:14.436Z,25.88
2019-06-01T10:06:43.327Z,27.65
2019-06-01T10:09:12.230Z,28.48
2019-06-01T10:11:42.374Z,27.94
2019-06-01T10:14:10.035Z,27.54
2019-06-01T10:16:39.147Z,27.48
2019-06-01T10:19:07.973Z,27.65
2019-06-01T10:21:37.957Z,27.89
2019-06-01T10:24:05.806Z,26.79
2019-06-01T10:26:35.748Z,26.59
2019-06-01T10:29:03.711Z,27.45
2019-06-01T10:31:32.669Z,23.64
2019-06-01T10:34:02.095Z,25.17
2019-06-01T10:36:31.913Z,26.45
2019-06-01T10:39:03.580Z,25.29
2019-06-01T10:41:33.230Z,27.14
2019-06-01T10:44:02.099Z,27.86
2019-06-01T10:46:31.927Z,25.05
2019-06-01T10:49:11.329Z,27.39
2019-06-01T10:51:40.535Z,28.57
2019-06-01T10:54:09.708Z,27.64
2019-06-01T10:56:40.553Z,28.36
2019-06-01T10:59:08.874Z,30.89
2019-06-01T11:01:40.919Z,30.68
2019-06-01T11:04:12.007Z,29.01
2019-06-01T11:06:46.667Z,27.67
2019-06-01T11:09:13.364Z,29.86
2019-06-01T11:11:43.223Z,28.79
2019-06-01T11:14:16.821Z,27.35
2019-06-01T11:16:45.897Z,27.88
2019-06-01T11:19:15.171Z,26.66
2019-06-01T11:21:44.382Z,26.29
2019-06-01T11:24:13.839Z,23.23
2019-06-01T11:26:43.881Z,25.74
2019-06-01T11:29:12.266Z,25.20
2019-06-01T11:31:42.174Z,25.12
2019-06-01T11:34:13.167Z,25.93
2019-06-01T11:37:03.648Z,26.98
2019-06-01T11:39:14.192Z,26.52
2019-06-01T11:41:46.079Z,24.12
2019-06-01T11:44:15.340Z,27.41
2019-06-01T11:46:45.164Z,26.97
2019-06-01T11:49:13.620Z,27.50
2019-06-01T11:51:43.329Z,24.85
2019-06-01T11:54:11.696Z,27.44
2019-06-01T11:56:45.522Z,27.51
2019-06-01T11:59:13.898Z,28.34
2019-06-01T12:01:46.034Z,27.69
2019-06-01T12:04:12.508Z,29.05
2019-06-01T12:06:42.072Z,29.03
2019-06-01T12:09:10.809Z,29.09
2019-06-01T12:11:44.141Z,29.87
2019-06-01T12:14:11.823Z,30.17
2019-06-01T12:16:42.283Z,31.33
2019-06-01T12:19:10.522Z,30.67
2019-06-01T12:21:42.919Z,31.58
2019-06-01T12:24:11.435Z,31.93
2019-06-01T12:26:41.343Z,31.23
2019-06-01T12:29:09.758Z,33.17
2019-06-01T12:31:39.639Z,33.05
2019-06-01T12:34:08.467Z,31.84
2019-06-01T12:36:39.388Z,31.64
2019-06-01T12:39:08.293Z,32.32
2019-06-01T12:41:43.508Z,33.03
2019-06-01T12:44:15.687Z,33.41
2019-06-01T12:46:44.978Z,33.73
2019-06-01T12:49:14.161Z,33.60
2019-06-01T12:51:44.563Z,34.51
2019-06-01T12:54:12.624Z,31.89
2019-06-01T12:56:42.822Z,31.98
2019-06-01T12:59:11.151Z,31.92
2019-06-01T13:01:41.019Z,33.17
2019-06-01T13:04:09.536Z,34.48
2019-06-01T13:06:44.632Z,34.65
2019-06-01T13:09:15.487Z,34.00
2019-06-01T13:11:45.246Z,35.11
2019-06-01T13:14:16.332Z,34.55
2019-06-01T13:16:56.945Z,32.95
2019-06-01T13:19:18.751Z,32.49
2019-06-01T13:21:51.733Z,32.77
2019-06-01T13:24:22.642Z,32.39
2019-06-01T13:26:54.744Z,33.34
2019-06-01T13:29:26.667Z,33.38
2019-06-01T13:31:55.883Z,32.93
2019-06-01T13:34:25.067Z,33.31
2019-06-01T13:36:54.446Z,33.09
2019-06-01T13:39:23.929Z,33.32
2019-06-01T13:41:53.459Z,33.13
2019-06-01T13:44:22.229Z,34.24
2019-06-01T13:46:52.035Z,34.51
2019-06-01T13:49:21.081Z,34.03
2019-06-01T13:51:52.796Z,34.87
2019-06-01T13:54:25.537Z,34.35
2019-06-01T13:57:00.911Z,33.30
2019-06-01T13:59:36.125Z,33.08
2019-06-01T14:02:05.684Z,33.30
2019-06-01T14:04:34.913Z,34.17
2019-06-01T14:07:04.836Z,33.27
2019-06-01T14:09:33.970Z,33.76
2019-06-01T14:12:03.330Z,33.67
2019-06-01T14:14:35.153Z,34.55
2019-06-01T14:17:07.447Z,34.42
2019-06-01T14:19:36.576Z,33.31
2019-06-01T14:22:05.751Z,33.55
2019-06-01T14:24:35.012Z,33.62
2019-06-01T14:27:06.065Z,35.00
2019-06-01T14:29:33.773Z,33.37
2019-06-01T14:32:03.006Z,34.75
2019-06-01T14:34:32.281Z,35.24
2019-06-01T14:37:04.428Z,35.08
2019-06-01T14:39:33.864Z,34.43
2019-06-01T14:42:08.976Z,33.66
2019-06-01T14:44:37.913Z,33.06
2019-06-01T14:47:07.395Z,33.82
2019-06-01T14:49:39.586Z,34.66
2019-06-01T14:52:08.783Z,35.46
2019-06-01T14:54:37.907Z,33.77
2019-06-01T14:57:08.425Z,34.02
2019-06-01T14:59:41.416Z,34.03
2019-06-01T15:02:10.575Z,34.50
2019-06-01T15:04:39.976Z,33.74
2019-06-01T15:07:09.330Z,34.63
2019-06-01T15:09:43.121Z,35.26
2019-06-01T15:12:10.167Z,35.29
2019-06-01T15:14:46.615Z,34.41
2019-06-01T15:17:18.592Z,35.14
2019-06-01T15:19:50.164Z,35.39
2019-06-01T15:22:19.307Z,34.88
2019-06-01T15:24:50.363Z,33.80
2019-06-01T15:27:19.237Z,33.87
2019-06-01T15:29:48.245Z,32.92
2019-06-01T15:32:17.322Z,34.59
2019-06-01T15:34:46.453Z,33.81
2019-06-01T15:37:15.654Z,35.32
2019-06-01T15:39:44.910Z,34.51
2019-06-01T15:42:16.563Z,34.96
2019-06-01T15:44:45.634Z,36.42
2019-06-01T15:47:14.815Z,36.83
2019-06-01T15:49:43.969Z,36.81
2019-06-01T15:52:13.114Z,36.09
2019-06-01T15:54:42.426Z,35.52
2019-06-01T15:57:11.544Z,35.53
2019-06-01T15:59:43.227Z,35.57
2019-06-01T16:02:17.916Z,36.15
2019-06-01T16:04:47.070Z,36.21
2019-06-01T16:07:16.187Z,35.81
2019-06-01T16:09:45.197Z,36.20
2019-06-01T16:12:14.335Z,36.93
2019-06-01T16:14:43.447Z,35.03
2019-06-01T16:17:12.584Z,34.58
2019-06-01T16:19:42.031Z,34.92
2019-06-01T16:22:11.225Z,35.92
2019-06-01T16:24:40.418Z,35.03
2019-06-01T16:27:22.598Z,35.51
2019-06-01T16:29:51.448Z,35.79
2019-06-01T16:32:20.618Z,34.82
2019-06-01T16:34:49.708Z,36.30
2019-06-01T16:37:21.783Z,35.70
2019-06-01T16:40:01.664Z,35.43
2019-06-01T16:42:20.382Z,35.33
2019-06-01T16:44:49.292Z,35.40
2019-06-01T16:47:18.189Z,35.19
2019-06-01T16:49:47.086Z,36.21
2019-06-01T16:52:15.961Z,36.27
2019-06-01T16:54:44.852Z,35.91
2019-06-01T16:57:13.765Z,37.22
2019-06-01T16:59:42.657Z,36.76
2019-06-01T17:02:12.025Z,36.64
2019-06-01T17:04:40.907Z,37.81
2019-06-01T17:07:09.880Z,37.36
2019-06-01T17:09:38.794Z,37.55
2019-06-01T17:12:07.891Z,38.21
2019-06-01T17:14:36.768Z,38.43
2019-06-01T17:17:07.353Z,38.81
2019-06-01T17:19:34.847Z,39.79
2019-06-01T17:22:03.734Z,39.12
2019-06-01T17:24:32.633Z,39.04
2019-06-01T17:27:02.122Z,38.78
2019-06-01T17:29:30.463Z,37.77
2019-06-01T17:32:14.341Z,37.37
2019-06-01T17:34:28.297Z,38.20
2019-06-01T17:36:57.173Z,38.41
2019-06-01T17:39:26.080Z,39.52
2019-06-01T17:41:54.969Z,39.03
2019-06-01T17:44:23.859Z,38.41
2019-06-01T17:46:54.067Z,38.60
2019-06-01T17:49:21.662Z,39.24
2019-06-01T17:51:50.574Z,39.50
2019-06-01T17:54:19.473Z,39.49
2019-06-01T17:56:48.370Z,39.08
2019-06-01T17:59:17.244Z,39.36
2019-06-01T18:01:46.146Z,40.60
2019-06-01T18:04:15.049Z,40.35
2019-06-01T18:06:43.980Z,40.93
2019-06-01T18:09:12.865Z,41.53
2019-06-01T18:11:41.735Z,41.57
2019-06-01T18:14:10.720Z,40.74
2019-06-01T18:16:39.624Z,41.49
2019-06-01T18:19:08.661Z,42.09
2019-06-01T18:21:37.554Z,41.95
2019-06-01T18:24:07.921Z,41.99
2019-06-01T18:26:35.429Z,42.29
2019-06-01T18:29:04.493Z,42.96
2019-06-01T18:31:33.319Z,43.04
2019-06-01T18:34:03.210Z,43.70
2019-06-01T18:36:31.108Z,44.10
2019-06-01T18:38:59.998Z,43.81
2019-06-01T18:41:28.896Z,44.06
2019-06-01T18:43:57.787Z,44.81
2019-06-01T18:46:26.709Z,46.20
2019-06-01T18:48:55.579Z,46.12
2019-06-01T18:51:24.479Z,46.41
2019-06-01T18:53:53.344Z,46.95
2019-06-01T18:56:22.272Z,47.32
2019-06-01T18:58:51.155Z,47.37
2019-06-01T19:01:21.144Z,47.93
2019-06-01T19:03:48.953Z,48.30
2019-06-01T19:06:17.853Z,48.56
2019-06-01T19:08:46.730Z,49.05
2019-06-01T19:11:31.690Z,49.17
2019-06-01T19:13:44.560Z,49.67
2019-06-01T19:16:14.322Z,50.04
2019-06-01T19:18:42.334Z,50.79
2019-06-01T19:21:11.240Z,51.39
2019-06-01T19:23:40.156Z,51.31
2019-06-01T19:26:13.062Z,51.66
2019-06-01T19:28:38.101Z,52.15
2019-06-01T19:31:07.043Z,51.91
2019-06-01T19:33:35.902Z,52.04
2019-06-01T19:36:04.847Z,52.41
2019-06-01T19:38:33.739Z,52.54
2019-06-01T19:41:02.762Z,53.26
2019-06-01T19:43:31.614Z,53.68
2019-06-01T19:46:00.514Z,54.29
2019-06-01T19:48:29.391Z,54.18
2019-06-01T19:50:58.274Z,54.67
2019-06-01T19:53:27.188Z,54.74
2019-06-01T19:55:56.091Z,54.93
2019-06-01T19:58:24.995Z,55.61
2019-06-01T20:00:53.908Z,55.99
2019-06-01T20:03:23.925Z,55.49
2019-06-01T20:05:51.693Z,55.35
2019-06-01T20:08:20.587Z,55.35
2019-06-01T20:10:49.560Z,55.27
2019-06-01T20:13:19.314Z,54.98
2019-06-01T20:15:47.273Z,54.80
2019-06-01T20:18:17.173Z,54.93
2019-06-01T20:20:45.065Z,55.04
2019-06-01T20:23:15.151Z,55.24
2019-06-01T20:25:42.825Z,55.67
2019-06-01T20:28:11.787Z,55.85
2019-06-01T20:30:40.618Z,56.34
2019-06-01T20:33:09.544Z,55.94
2019-06-01T20:35:38.436Z,55.91
2019-06-01T20:38:07.440Z,56.51
2019-06-01T20:40:36.345Z,57.27
2019-06-01T20:43:05.332Z,57.39
2019-06-01T20:45:34.204Z,56.85
2019-06-01T20:48:03.074Z,57.73
2019-06-01T20:50:32.001Z,57.63
2019-06-01T20:53:00.871Z,58.32
2019-06-01T20:55:29.775Z,58.35
2019-06-01T20:57:58.649Z,58.60
2019-06-01T21:00:31.103Z,58.68
2019-06-01T21:02:56.428Z,58.93
2019-06-01T21:05:25.377Z,59.09
2019-06-01T21:07:57.035Z,58.84
2019-06-01T21:10:24.189Z,59.20
2019-06-01T21:12:52.047Z,58.96
2019-06-01T21:15:21.297Z,59.38
2019-06-01T21:17:50.425Z,59.18
2019-06-01T21:20:25.391Z,59.43
2019-06-01T21:22:47.633Z,59.56
2019-06-01T21:25:16.738Z,59.88
2019-06-01T21:27:45.435Z,59.96
2019-06-01T21:30:16.094Z,59.17
2019-06-01T21:32:43.248Z,58.91
2019-06-01T21:35:12.130Z,58.31
2019-06-01T21:37:41.047Z,58.55
2019-06-01T21:40:09.934Z,58.76
2019-06-01T21:42:39.997Z,58.99
2019-06-01T21:45:07.778Z,58.46
2019-06-01T21:47:36.671Z,58.86
2019-06-01T21:50:05.575Z,58.98
2019-06-01T21:52:34.480Z,59.74
2019-06-01T21:55:03.356Z,59.71
2019-06-01T21:57:32.306Z,60.05
2019-06-01T22:00:01.179Z,59.67
2019-06-01T22:02:30.068Z,59.74
2019-06-01T22:04:58.954Z,59.56
2019-06-01T22:07:27.856Z,59.56
2019-06-01T22:09:56.760Z,58.87
2019-06-01T22:12:25.785Z,58.40
2019-06-01T22:14:54.549Z,59.53
2019-06-01T22:17:23.733Z,59.22
2019-06-01T22:19:52.329Z,59.17
2019-06-01T22:22:21.708Z,59.05
2019-06-01T22:24:50.116Z,59.19
2019-06-01T22:27:20.106Z,59.65
2019-06-01T22:29:47.923Z,59.96
2019-06-01T22:32:16.798Z,59.28
2019-06-01T22:34:45.742Z,59.39
2019-06-01T22:37:14.629Z,59.19
2019-06-01T22:39:43.513Z,59.33
2019-06-01T22:42:12.452Z,60.21
2019-06-01T22:44:41.314Z,59.94
2019-06-01T22:47:10.199Z,60.54
2019-06-01T22:49:39.115Z,59.69
2019-06-01T22:52:08.070Z,59.67
2019-06-01T22:54:36.956Z,59.72
2019-06-01T22:57:05.939Z,59.94
2019-06-01T22:59:34.818Z,60.52
2019-06-01T23:02:03.726Z,61.30
2019-06-01T23:04:32.599Z,61.57
2019-06-01T23:07:01.528Z,61.63
2019-06-01T23:09:31.676Z,61.68
2019-06-01T23:11:59.337Z,61.06
2019-06-01T23:14:29.371Z,60.94
2019-06-01T23:16:57.131Z,60.79
2019-06-01T23:19:26.024Z,60.88
2019-06-01T23:21:54.944Z,61.47
2019-06-01T23:24:24.012Z,62.27
2019-06-01T23:26:52.757Z,62.32
2019-06-01T23:29:22.268Z,61.90
2019-06-01T23:31:50.622Z,61.98
2019-06-01T23:34:19.482Z,62.34
2019-06-01T23:36:48.378Z,62.39
2019-06-01T23:39:17.259Z,62.67
2019-06-01T23:41:46.142Z,62.77
2019-06-01T23:44:15.021Z,62.97
2019-06-01T23:46:43.928Z,63.12
2019-06-01T23:49:12.825Z,63.49
2019-06-01T23:51:41.711Z,63.57
2019-06-01T23:54:10.591Z,63.58
2019-06-01T23:56:39.501Z,63.73
2019-06-01T23:59:08.390Z,64.21
